Time;durP1;ratioP1;P1;durP2;ratioP2;P2;SDS_P1;SDS_P2;PMS_P1;PMS_P2;Temp;Humidity;BMP_temperature;BMP_pressure;BME280_temperature;BME280_humidity;BME280_pressure;Samples;Min_cycle;Max_cycle;Signal;HPM_P1;HPM_P2
2021/05/16 00:00:35;;;;;;;6.63;5.40;;;;;;;;;;5077820;28;20457;-96
2021/05/16 00:03:01;;;;;;;6.20;5.60;;;;;;;;;;5074102;28;20445;-96
2021/05/16 00:05:28;;;;;;;6.10;5.50;;;;;;;;;;5078422;28;20463;-95
2021/05/16 00:07:55;;;;;;;10.03;5.90;;;;;;;;;;5070385;28;20483;-95
2021/05/16 00:10:22;;;;;;;6.70;6.10;;;;;;;;;;5076712;28;20530;-95
2021/05/16 00:12:48;;;;;;;6.23;5.63;;;;;;;;;;5071656;28;20453;-96
2021/05/16 00:15:15;;;;;;;6.80;6.20;;;;;;;;;;5073425;28;20452;-95
2021/05/16 00:17:42;;;;;;;7.87;6.00;;;;;;;;;;5073317;28;20468;-95
2021/05/16 00:20:10;;;;;;;6.03;5.50;;;;;;;;;;5077656;28;20464;-94
2021/05/16 00:22:36;;;;;;;6.50;6.00;;;;;;;;;;5072691;28;20476;-95
2021/05/16 00:25:05;;;;;;;7.43;6.73;;;;;;;;;;5066597;28;20453;-95
2021/05/16 00:27:31;;;;;;;6.87;6.27;;;;;;;;;;5068093;28;20457;-95
2021/05/16 00:29:57;;;;;;;7.20;6.60;;;;;;;;;;5076803;28;20493;-95
2021/05/16 00:32:23;;;;;;;8.10;7.30;;;;;;;;;;5069411;28;20456;-95
2021/05/16 00:34:51;;;;;;;7.83;7.10;;;;;;;;;;5071643;28;20445;-96
2021/05/16 00:37:17;;;;;;;9.87;8.87;;;;;;;;;;5075364;28;20464;-95
2021/05/16 00:39:43;;;;;;;10.03;8.67;;;;;;;;;;5073571;28;20483;-96
2021/05/16 00:42:10;;;;;;;14.40;10.17;;;;;;;;;;5069971;28;20861;-96
2021/05/16 00:44:36;;;;;;;12.03;9.50;;;;;;;;;;5076114;28;20884;-96
2021/05/16 00:47:02;;;;;;;12.30;10.97;;;;;;;;;;5067118;28;20828;-95
2021/05/16 00:49:28;;;;;;;11.90;10.10;;;;;;;;;;5068783;28;20540;-95
2021/05/16 00:51:54;;;;;;;12.40;10.27;;;;;;;;;;5078544;28;20464;-96
2021/05/16 00:54:20;;;;;;;12.40;10.20;;;;;;;;;;5073539;28;20490;-96
2021/05/16 00:56:46;;;;;;;17.77;11.33;;;;;;;;;;5072867;28;20449;-96
2021/05/16 00:59:13;;;;;;;14.27;11.10;;;;;;;;;;5067824;28;20466;-96
2021/05/16 01:01:39;;;;;;;16.13;11.90;;;;;;;;;;5079120;28;20445;-96
2021/05/16 01:04:05;;;;;;;12.47;11.13;;;;;;;;;;5070966;28;20977;-96
2021/05/16 01:06:31;;;;;;;12.80;9.90;;;;;;;;;;5072086;28;20458;-96
2021/05/16 01:08:58;;;;;;;10.80;9.70;;;;;;;;;;5068610;28;20568;-96
2021/05/16 01:11:28;;;;;;;12.73;9.30;;;;;;;;;;5075938;28;20449;-95
2021/05/16 01:13:54;;;;;;;10.27;9.17;;;;;;;;;;5066555;28;20469;-96
2021/05/16 01:16:21;;;;;;;11.47;9.07;;;;;;;;;;5075879;28;20446;-96
2021/05/16 01:18:47;;;;;;;10.73;8.97;;;;;;;;;;5068895;28;20454;-96
2021/05/16 01:21:16;;;;;;;23.40;10.20;;;;;;;;;;5075618;28;20476;-95
2021/05/16 01:23:46;;;;;;;9.93;8.93;;;;;;;;;;5095368;28;20452;-96
2021/05/16 01:26:12;;;;;;;13.60;9.80;;;;;;;;;;5091733;28;20479;-96
2021/05/16 01:28:39;;;;;;;13.40;9.20;;;;;;;;;;5091116;28;20488;-96
2021/05/16 01:31:05;;;;;;;12.80;9.43;;;;;;;;;;5089801;28;20449;-96
2021/05/16 01:33:31;;;;;;;9.87;8.00;;;;;;;;;;5091692;28;20474;-96
2021/05/16 01:35:57;;;;;;;9.77;8.77;;;;;;;;;;5089241;28;20490;-95
2021/05/16 01:38:24;;;;;;;9.63;8.63;;;;;;;;;;5097107;28;20451;-95
2021/05/16 01:40:50;;;;;;;7.33;6.60;;;;;;;;;;5089091;28;20475;-96
2021/05/16 01:43:16;;;;;;;9.43;8.23;;;;;;;;;;5098335;28;20452;-95
2021/05/16 01:45:43;;;;;;;9.70;7.77;;;;;;;;;;5093679;28;20459;-94
2021/05/16 01:48:09;;;;;;;8.90;8.00;;;;;;;;;;5085298;28;21584;-96
2021/05/16 01:50:36;;;;;;;10.20;8.10;;;;;;;;;;5089525;28;20465;-95
2021/05/16 01:53:03;;;;;;;16.53;8.40;;;;;;;;;;5083965;28;20510;-95
2021/05/16 01:55:30;;;;;;;14.27;8.50;;;;;;;;;;5093817;28;20460;-96
2021/05/16 01:57:56;;;;;;;9.40;7.23;;;;;;;;;;5092453;28;20463;-95
2021/05/16 02:00:25;;;;;;;8.77;7.50;;;;;;;;;;5092014;28;20456;-95
2021/05/16 02:02:52;;;;;;;9.07;7.53;;;;;;;;;;5093921;28;20461;-95
2021/05/16 02:05:18;;;;;;;8.63;7.43;;;;;;;;;;5096791;28;20452;-95
2021/05/16 02:07:44;;;;;;;8.93;8.03;;;;;;;;;;5087791;28;20463;-95
2021/05/16 02:10:11;;;;;;;8.67;7.60;;;;;;;;;;5096905;28;20484;-95
2021/05/16 02:12:38;;;;;;;9.30;7.43;;;;;;;;;;5092233;28;20460;-96
2021/05/16 02:15:04;;;;;;;8.83;7.73;;;;;;;;;;5086160;28;20452;-95
2021/05/16 02:17:30;;;;;;;9.23;8.27;;;;;;;;;;5091847;28;20448;-95
2021/05/16 02:19:56;;;;;;;10.80;8.60;;;;;;;;;;5087299;28;20513;-94
2021/05/16 02:22:22;;;;;;;8.77;7.97;;;;;;;;;;5073204;28;20485;-95
2021/05/16 02:24:48;;;;;;;11.30;8.80;;;;;;;;;;5076692;28;20445;-95
2021/05/16 02:27:16;;;;;;;10.03;8.77;;;;;;;;;;5068500;28;20898;-94
2021/05/16 02:29:43;;;;;;;9.87;8.50;;;;;;;;;;5075292;28;20571;-94
2021/05/16 02:32:09;;;;;;;11.73;8.20;;;;;;;;;;5073410;28;20458;-95
2021/05/16 02:34:35;;;;;;;10.37;8.20;;;;;;;;;;5066123;28;20479;-95
2021/05/16 02:37:01;;;;;;;12.33;8.43;;;;;;;;;;5068622;28;20476;-94
2021/05/16 02:39:27;;;;;;;13.30;7.90;;;;;;;;;;5075603;28;20445;-95
2021/05/16 02:41:53;;;;;;;9.40;7.90;;;;;;;;;;5066544;28;20458;-95
2021/05/16 02:44:19;;;;;;;10.10;8.33;;;;;;;;;;5063152;28;21199;-94
2021/05/16 02:46:46;;;;;;;9.03;8.00;;;;;;;;;;5072960;28;20529;-95
2021/05/16 02:49:13;;;;;;;10.30;9.23;;;;;;;;;;5064485;28;20488;-96
2021/05/16 02:51:39;;;;;;;11.87;9.07;;;;;;;;;;5068639;28;20454;-95
2021/05/16 02:54:06;;;;;;;11.67;9.40;;;;;;;;;;5070842;28;20461;-95
2021/05/16 02:56:32;;;;;;;11.90;10.50;;;;;;;;;;5065582;28;20473;-96
2021/05/16 02:58:58;;;;;;;11.60;10.47;;;;;;;;;;5065179;28;20461;-96
2021/05/16 03:01:24;;;;;;;11.90;10.70;;;;;;;;;;5067972;28;20484;-95
2021/05/16 03:03:51;;;;;;;13.43;10.90;;;;;;;;;;5070208;28;20469;-96
2021/05/16 03:06:17;;;;;;;16.03;10.80;;;;;;;;;;5070572;28;20453;-96
2021/05/16 03:08:43;;;;;;;13.50;11.17;;;;;;;;;;5068414;28;20501;-96
2021/05/16 03:11:09;;;;;;;11.13;10.00;;;;;;;;;;5072057;28;20955;-94
2021/05/16 03:13:35;;;;;;;14.17;10.47;;;;;;;;;;5070582;28;20475;-94
2021/05/16 03:16:01;;;;;;;11.10;9.70;;;;;;;;;;5064746;28;20442;-95
2021/05/16 03:18:27;;;;;;;14.07;10.43;;;;;;;;;;5067111;28;20458;-96
2021/05/16 03:20:54;;;;;;;9.90;8.90;;;;;;;;;;5064612;28;20481;-96
2021/05/16 03:23:20;;;;;;;16.10;10.80;;;;;;;;;;5069960;28;20453;-96
2021/05/16 03:25:46;;;;;;;8.70;7.90;;;;;;;;;;5070587;28;20458;-96
2021/05/16 03:28:13;;;;;;;8.13;7.20;;;;;;;;;;5065008;28;20457;-96
2021/05/16 03:30:39;;;;;;;7.80;6.67;;;;;;;;;;5069300;28;20827;-96
2021/05/16 03:33:05;;;;;;;7.00;6.40;;;;;;;;;;5072921;28;20458;-96
2021/05/16 03:35:31;;;;;;;6.37;5.63;;;;;;;;;;5069670;28;20464;-96
2021/05/16 03:37:58;;;;;;;7.00;5.80;;;;;;;;;;5070618;28;20464;-96
2021/05/16 03:40:24;;;;;;;6.60;5.97;;;;;;;;;;5063669;28;20479;-96
2021/05/16 03:42:50;;;;;;;6.80;6.20;;;;;;;;;;5069907;28;20441;-95
2021/05/16 03:45:16;;;;;;;7.87;6.50;;;;;;;;;;5070475;28;20484;-96
2021/05/16 03:47:43;;;;;;;8.17;6.17;;;;;;;;;;5066879;28;20454;-96
2021/05/16 03:50:10;;;;;;;7.70;6.90;;;;;;;;;;5067518;28;20495;-96
2021/05/16 03:52:36;;;;;;;7.70;7.00;;;;;;;;;;5067888;28;20449;-95
2021/05/16 03:55:04;;;;;;;11.93;7.37;;;;;;;;;;5067514;28;20455;-96
2021/05/16 03:57:30;;;;;;;10.90;7.80;;;;;;;;;;5068999;28;20473;-96
2021/05/16 03:59:56;;;;;;;8.83;6.97;;;;;;;;;;5068873;28;20468;-96
2021/05/16 04:02:22;;;;;;;7.10;6.50;;;;;;;;;;5071971;28;20450;-96
2021/05/16 04:04:48;;;;;;;7.07;6.37;;;;;;;;;;5075362;28;20455;-96
2021/05/16 04:07:14;;;;;;;8.00;6.30;;;;;;;;;;5067725;28;20465;-96
2021/05/16 04:09:40;;;;;;;8.37;7.13;;;;;;;;;;5068250;28;20987;-96
2021/05/16 04:12:08;;;;;;;7.40;6.60;;;;;;;;;;5070281;28;20460;-96
2021/05/16 04:14:34;;;;;;;11.53;7.03;;;;;;;;;;5073650;28;20454;-96
2021/05/16 04:17:00;;;;;;;7.60;6.97;;;;;;;;;;5077916;28;20500;-96
2021/05/16 04:19:26;;;;;;;9.13;7.17;;;;;;;;;;5071140;28;20452;-96
2021/05/16 04:21:52;;;;;;;8.80;6.80;;;;;;;;;;5075512;28;20472;-96
2021/05/16 04:24:18;;;;;;;11.30;9.40;;;;;;;;;;5080912;28;20455;-96
2021/05/16 04:26:44;;;;;;;10.20;9.20;;;;;;;;;;5072674;28;20469;-96
2021/05/16 04:29:12;;;;;;;11.93;9.63;;;;;;;;;;5071591;28;20485;-96
2021/05/16 04:31:38;;;;;;;8.70;7.63;;;;;;;;;;5068870;28;20460;-96
2021/05/16 04:34:04;;;;;;;8.70;7.53;;;;;;;;;;5065479;28;21109;-96
2021/05/16 04:36:30;;;;;;;8.03;7.23;;;;;;;;;;5076486;28;20477;-96
2021/05/16 04:38:57;;;;;;;9.33;8.43;;;;;;;;;;5071540;28;20453;-96
2021/05/16 04:41:23;;;;;;;8.87;8.07;;;;;;;;;;5076172;28;20446;-96
2021/05/16 04:43:49;;;;;;;9.10;8.20;;;;;;;;;;5065359;28;20453;-96
2021/05/16 04:46:15;;;;;;;11.20;8.13;;;;;;;;;;5070613;28;20458;-95
2021/05/16 04:48:42;;;;;;;10.87;9.77;;;;;;;;;;5062663;28;20520;-95
2021/05/16 04:51:08;;;;;;;9.60;8.70;;;;;;;;;;5070816;28;20457;-95
2021/05/16 04:53:36;;;;;;;9.60;8.60;;;;;;;;;;5070071;28;20472;-94
2021/05/16 04:56:02;;;;;;;9.20;8.40;;;;;;;;;;5076976;28;20806;-94
2021/05/16 04:58:28;;;;;;;9.73;8.93;;;;;;;;;;5069432;28;20456;-94
2021/05/16 05:00:54;;;;;;;8.60;7.20;;;;;;;;;;5075402;28;20872;-94
2021/05/16 05:03:22;;;;;;;8.60;7.80;;;;;;;;;;5066476;28;20484;-93
2021/05/16 05:05:48;;;;;;;9.07;8.10;;;;;;;;;;5067414;28;20549;-94
2021/05/16 05:08:14;;;;;;;7.67;6.90;;;;;;;;;;5068636;28;20464;-94
2021/05/16 05:10:40;;;;;;;7.60;6.90;;;;;;;;;;5075942;28;20452;-94
2021/05/16 05:13:06;;;;;;;7.73;6.97;;;;;;;;;;5065791;28;21103;-94
2021/05/16 05:15:32;;;;;;;8.83;8.03;;;;;;;;;;5070982;28;20480;-95
2021/05/16 05:17:58;;;;;;;9.60;8.60;;;;;;;;;;5065570;28;20445;-94
2021/05/16 05:20:25;;;;;;;14.40;9.27;;;;;;;;;;5068306;28;20450;-93
2021/05/16 05:22:51;;;;;;;9.33;8.43;;;;;;;;;;5089305;28;20476;-95
2021/05/16 05:25:17;;;;;;;9.30;8.43;;;;;;;;;;5087960;28;20465;-92
2021/05/16 05:27:43;;;;;;;9.37;8.47;;;;;;;;;;5087061;28;20463;-94
2021/05/16 05:30:10;;;;;;;10.07;9.07;;;;;;;;;;5091638;28;20521;-95
2021/05/16 05:32:36;;;;;;;8.87;7.97;;;;;;;;;;5087410;28;20444;-94
2021/05/16 05:35:02;;;;;;;9.20;8.30;;;;;;;;;;5089154;28;21001;-93
2021/05/16 05:37:29;;;;;;;9.07;8.17;;;;;;;;;;5096945;28;20448;-94
2021/05/16 05:39:55;;;;;;;10.87;8.20;;;;;;;;;;5092054;28;20459;-94
2021/05/16 05:42:23;;;;;;;9.77;7.57;;;;;;;;;;5087481;28;20445;-94
2021/05/16 05:44:49;;;;;;;8.23;7.43;;;;;;;;;;5094972;28;20449;-93
2021/05/16 05:47:15;;;;;;;7.73;7.03;;;;;;;;;;5089687;28;20521;-93
2021/05/16 05:49:41;;;;;;;8.33;7.60;;;;;;;;;;5096971;28;20520;-96
2021/05/16 05:52:10;;;;;;;8.20;7.43;;;;;;;;;;5094201;28;20450;-96
2021/05/16 05:54:38;;;;;;;8.30;7.50;;;;;;;;;;5099681;28;20477;-96
2021/05/16 05:57:04;;;;;;;10.20;7.73;;;;;;;;;;5092231;28;20460;-94
2021/05/16 05:59:31;;;;;;;9.10;8.30;;;;;;;;;;5093217;28;20461;-96
2021/05/16 06:05:13;;;;;;;9.47;7.57;;;;;;;;;;5210646;22;20485;-96
2021/05/16 06:07:39;;;;;;;8.37;7.67;;;;;;;;;;5032254;28;20486;-96
2021/05/16 06:30:27;;;;;;;6.63;6.10;;;;;;;;;;5867114;22;20480;-96
2021/05/16 06:40:47;;;;;;;6.70;6.10;;;;;;;;;;4096035;26;20485;-96
2021/05/16 06:43:21;;;;;;;10.10;6.47;;;;;;;;;;5055810;28;20548;-96
2021/05/16 06:45:48;;;;;;;6.40;5.90;;;;;;;;;;5062123;28;20426;-96
2021/05/16 06:48:14;;;;;;;7.10;6.40;;;;;;;;;;5062550;22;20510;-96
2021/05/16 06:50:40;;;;;;;7.73;6.53;;;;;;;;;;5061467;28;20446;-96
2021/05/16 06:53:07;;;;;;;7.00;6.40;;;;;;;;;;5063829;28;20446;-96
2021/05/16 06:58:14;;;;;;;7.40;6.70;;;;;;;;;;5069901;28;20446;-96
2021/05/16 07:00:41;;;;;;;7.20;6.50;;;;;;;;;;5069518;28;20446;-96
2021/05/16 07:03:08;;;;;;;7.50;6.90;;;;;;;;;;5059827;28;20543;-96
2021/05/16 07:05:34;;;;;;;13.93;7.63;;;;;;;;;;5059998;28;20450;-96
2021/05/16 07:08:00;;;;;;;7.90;7.20;;;;;;;;;;5054508;28;20473;-96
2021/05/16 07:10:26;;;;;;;8.37;7.40;;;;;;;;;;5054911;28;21000;-96
2021/05/16 07:12:52;;;;;;;7.00;6.40;;;;;;;;;;5058157;28;20473;-96
2021/05/16 07:15:21;;;;;;;7.97;6.60;;;;;;;;;;5059190;28;20459;-96
2021/05/16 07:17:50;;;;;;;7.80;6.43;;;;;;;;;;5075144;22;20525;-96
2021/05/16 07:23:13;;;;;;;6.00;5.50;;;;;;;;;;5062329;28;20593;-96
2021/05/16 07:25:41;;;;;;;5.93;5.43;;;;;;;;;;5069394;28;21078;-96
2021/05/16 07:41:58;;;;;;;6.13;5.63;;;;;;;;;;5122154;22;20580;-96
2021/05/16 07:47:14;;;;;;;8.23;6.10;;;;;;;;;;5409537;22;20461;-96
2021/05/16 07:52:15;;;;;;;6.53;5.90;;;;;;;;;;4873808;26;20482;-96
2021/05/16 07:57:41;;;;;;;6.83;6.10;;;;;;;;;;5835531;22;20528;-96
2021/05/16 08:00:13;;;;;;;7.30;6.63;;;;;;;;;;5078899;28;20425;-96
2021/05/16 08:11:10;;;;;;;7.30;6.23;;;;;;;;;;5370909;22;20492;-96
2021/05/16 08:25:00;;;;;;;7.10;6.50;;;;;;;;;;5810392;22;20547;-96
2021/05/16 08:37:47;;;;;;;7.80;7.00;;;;;;;;;;4977406;22;20503;-96
2021/05/16 08:40:19;;;;;;;7.23;6.63;;;;;;;;;;5092232;28;20458;-96
2021/05/16 08:42:46;;;;;;;7.67;6.30;;;;;;;;;;5092563;28;20469;-96
2021/05/16 08:45:13;;;;;;;6.67;6.10;;;;;;;;;;5096055;28;20529;-96
2021/05/16 08:47:42;;;;;;;7.40;6.73;;;;;;;;;;5096742;28;20420;-96
2021/05/16 08:53:14;;;;;;;7.33;6.73;;;;;;;;;;5196489;22;20518;-95
2021/05/16 08:55:41;;;;;;;7.60;7.00;;;;;;;;;;5107895;28;20440;-96
2021/05/16 09:01:08;;;;;;;8.53;6.43;;;;;;;;;;3815209;22;20499;-96
2021/05/16 09:04:00;;;;;;;6.37;5.77;;;;;;;;;;5098595;23;20473;-96
2021/05/16 09:06:51;;;;;;;5.90;5.40;;;;;;;;;;5216802;22;20502;-96
2021/05/16 09:09:42;;;;;;;6.77;6.07;;;;;;;;;;5069757;22;20485;-96
2021/05/16 09:12:14;;;;;;;6.23;5.70;;;;;;;;;;5122751;22;20478;-96
2021/05/16 09:14:45;;;;;;;5.80;5.30;;;;;;;;;;5132304;22;21361;-96
2021/05/16 09:22:55;;;;;;;4.70;4.30;;;;;;;;;;5717505;22;20519;-96
2021/05/16 09:25:23;;;;;;;5.07;4.57;;;;;;;;;;5064063;22;20502;-96
2021/05/16 09:27:56;;;;;;;5.13;4.73;;;;;;;;;;5274002;22;20512;-96
2021/05/16 09:30:26;;;;;;;6.03;5.37;;;;;;;;;;5090998;22;20464;-96
2021/05/16 09:32:53;;;;;;;4.83;4.43;;;;;;;;;;5106921;28;20433;-95
2021/05/16 09:35:37;;;;;;;5.13;4.70;;;;;;;;;;5108712;28;20886;-96
2021/05/16 09:38:07;;;;;;;5.47;4.80;;;;;;;;;;5101202;28;20452;-96
2021/05/16 09:40:44;;;;;;;4.97;4.53;;;;;;;;;;5097381;28;20589;-96
2021/05/16 09:43:13;;;;;;;5.30;4.80;;;;;;;;;;5107070;28;20452;-96
2021/05/16 09:45:44;;;;;;;5.83;4.40;;;;;;;;;;5194907;22;20509;-96
2021/05/16 09:51:09;;;;;;;5.10;4.70;;;;;;;;;;5074708;22;20251;-96
2021/05/16 09:53:45;;;;;;;6.43;4.90;;;;;;;;;;5056749;28;20521;-96
2021/05/16 09:56:24;;;;;;;5.40;4.97;;;;;;;;;;5047143;28;20866;-96
2021/05/16 09:58:52;;;;;;;5.53;5.03;;;;;;;;;;5043893;28;20465;-96
2021/05/16 10:01:21;;;;;;;5.57;5.17;;;;;;;;;;5048879;28;20447;-96
2021/05/16 10:03:48;;;;;;;5.40;4.90;;;;;;;;;;5047980;28;20498;-96
2021/05/16 10:06:17;;;;;;;6.37;5.27;;;;;;;;;;5048601;28;20522;-96
2021/05/16 10:08:51;;;;;;;5.20;4.80;;;;;;;;;;5043571;28;20509;-96
2021/05/16 10:11:18;;;;;;;5.33;4.83;;;;;;;;;;5053544;28;21242;-96
2021/05/16 10:16:37;;;;;;;5.17;4.77;;;;;;;;;;5056730;28;20460;-96
2021/05/16 10:19:08;;;;;;;5.17;4.77;;;;;;;;;;5053086;28;20461;-96
2021/05/16 10:21:34;;;;;;;5.20;4.47;;;;;;;;;;5057409;28;20469;-95
2021/05/16 10:24:12;;;;;;;8.90;4.70;;;;;;;;;;5055936;28;20476;-96
2021/05/16 10:26:39;;;;;;;4.80;4.40;;;;;;;;;;5050125;28;20466;-95
2021/05/16 10:29:07;;;;;;;5.23;4.60;;;;;;;;;;5053864;28;20583;-96
2021/05/16 10:31:40;;;;;;;8.33;5.40;;;;;;;;;;5051516;28;20471;-96
2021/05/16 10:34:21;;;;;;;5.70;4.77;;;;;;;;;;5048534;28;20454;-96
2021/05/16 10:36:47;;;;;;;5.50;5.00;;;;;;;;;;5042698;28;20461;-96
2021/05/16 10:39:36;;;;;;;4.47;4.10;;;;;;;;;;5048871;28;20466;-96
2021/05/16 10:42:13;;;;;;;5.20;4.80;;;;;;;;;;5046566;28;20455;-96
2021/05/16 10:57:59;;;;;;;5.23;4.73;;;;;;;;;;5067555;27;846401;-96
2021/05/16 11:00:26;;;;;;;7.00;5.10;;;;;;;;;;5074196;28;20450;-96
2021/05/16 11:02:59;;;;;;;5.80;5.20;;;;;;;;;;5080850;28;20488;-96
2021/05/16 11:05:46;;;;;;;5.70;5.30;;;;;;;;;;5077210;28;20495;-96
2021/05/16 11:08:32;;;;;;;5.67;4.60;;;;;;;;;;5075747;28;20461;-95
2021/05/16 11:10:59;;;;;;;5.63;5.20;;;;;;;;;;5072960;28;20571;-95
2021/05/16 11:13:27;;;;;;;6.83;4.80;;;;;;;;;;5075180;28;20536;-96
2021/05/16 11:15:54;;;;;;;5.50;5.00;;;;;;;;;;5073009;28;20464;-96
2021/05/16 11:18:22;;;;;;;8.10;5.17;;;;;;;;;;5072171;28;20457;-96
2021/05/16 11:20:50;;;;;;;4.90;4.60;;;;;;;;;;5073904;28;20546;-96
2021/05/16 11:23:22;;;;;;;5.70;5.10;;;;;;;;;;5076497;28;20466;-96
2021/05/16 11:25:54;;;;;;;5.90;5.40;;;;;;;;;;5074096;28;20484;-96
2021/05/16 11:28:25;;;;;;;6.00;5.00;;;;;;;;;;5081251;28;20480;-96
2021/05/16 11:30:53;;;;;;;5.30;4.90;;;;;;;;;;5163816;22;20510;-96
2021/05/16 11:33:26;;;;;;;6.20;5.40;;;;;;;;;;5103180;28;20702;-95
2021/05/16 11:35:58;;;;;;;8.63;5.67;;;;;;;;;;5098994;28;20467;-96
2021/05/16 11:38:25;;;;;;;7.03;5.30;;;;;;;;;;5102177;28;20463;-94
2021/05/16 11:40:54;;;;;;;6.07;5.43;;;;;;;;;;5106555;28;20479;-96
2021/05/16 11:43:26;;;;;;;5.70;5.30;;;;;;;;;;5101232;28;20463;-94
2021/05/16 11:45:53;;;;;;;5.53;4.97;;;;;;;;;;5096785;28;20495;-93
2021/05/16 11:48:24;;;;;;;5.50;4.90;;;;;;;;;;5102529;28;20955;-94
2021/05/16 11:50:50;;;;;;;6.30;5.73;;;;;;;;;;5100655;28;20457;-96
2021/05/16 11:53:21;;;;;;;6.43;5.50;;;;;;;;;;5101924;28;20445;-96
2021/05/16 11:55:47;;;;;;;5.47;4.60;;;;;;;;;;5109218;28;20502;-96
2021/05/16 11:58:13;;;;;;;6.13;5.50;;;;;;;;;;5097666;28;20482;-96
2021/05/16 12:00:39;;;;;;;5.67;5.27;;;;;;;;;;5090479;28;20548;-96
2021/05/16 12:03:11;;;;;;;5.20;4.80;;;;;;;;;;5092193;28;21015;-96
2021/05/16 12:05:37;;;;;;;5.80;5.07;;;;;;;;;;5088337;28;20476;-96
2021/05/16 12:08:16;;;;;;;4.50;4.10;;;;;;;;;;5086482;28;20442;-96
2021/05/16 12:10:42;;;;;;;5.13;4.63;;;;;;;;;;5088809;28;20467;-95
2021/05/16 12:13:20;;;;;;;5.20;4.80;;;;;;;;;;5095489;28;20459;-96
2021/05/16 12:15:50;;;;;;;5.30;4.70;;;;;;;;;;5100440;28;20479;-95
2021/05/16 12:18:23;;;;;;;4.80;4.43;;;;;;;;;;5088547;28;20453;-96
2021/05/16 12:20:59;;;;;;;6.90;4.97;;;;;;;;;;5081786;28;20506;-96
2021/05/16 12:23:25;;;;;;;5.60;5.10;;;;;;;;;;5088412;28;21251;-96
2021/05/16 12:25:51;;;;;;;6.50;4.77;;;;;;;;;;5089883;28;20460;-96
2021/05/16 12:28:17;;;;;;;5.43;5.00;;;;;;;;;;5089982;28;20449;-96
2021/05/16 12:30:44;;;;;;;5.30;4.33;;;;;;;;;;5091552;28;20484;-95
2021/05/16 12:33:10;;;;;;;4.80;4.30;;;;;;;;;;5085219;28;20461;-96
2021/05/16 12:35:37;;;;;;;4.60;4.30;;;;;;;;;;5088874;28;20456;-96
2021/05/16 12:38:09;;;;;;;4.43;4.13;;;;;;;;;;5083478;28;20461;-96
2021/05/16 12:40:35;;;;;;;5.37;4.87;;;;;;;;;;5094681;28;20456;-96
2021/05/16 12:43:02;;;;;;;4.87;4.47;;;;;;;;;;5085841;28;20490;-96
2021/05/16 12:45:29;;;;;;;7.93;4.60;;;;;;;;;;5085155;28;20461;-96
2021/05/16 12:47:56;;;;;;;6.60;4.20;;;;;;;;;;5089538;28;20468;-95
2021/05/16 12:50:28;;;;;;;4.93;4.53;;;;;;;;;;5082471;28;20467;-95
2021/05/16 12:52:55;;;;;;;5.83;4.70;;;;;;;;;;5088992;28;20464;-96
2021/05/16 12:55:27;;;;;;;4.30;4.00;;;;;;;;;;5087539;28;20495;-95
2021/05/16 12:57:58;;;;;;;9.73;4.73;;;;;;;;;;5086128;28;20452;-96
2021/05/16 13:00:31;;;;;;;5.03;4.73;;;;;;;;;;5088097;28;21254;-94
2021/05/16 13:03:05;;;;;;;5.37;4.87;;;;;;;;;;5082516;28;20461;-95
2021/05/16 13:05:31;;;;;;;5.90;4.70;;;;;;;;;;5084317;28;20486;-96
2021/05/16 13:07:58;;;;;;;5.37;4.87;;;;;;;;;;5082677;28;20461;-96
2021/05/16 13:10:32;;;;;;;5.47;4.87;;;;;;;;;;5090462;28;20461;-96
2021/05/16 13:13:07;;;;;;;7.40;5.90;;;;;;;;;;5085614;28;20479;-96
2021/05/16 13:15:34;;;;;;;10.10;6.00;;;;;;;;;;5094351;28;21025;-95
2021/05/16 13:18:18;;;;;;;6.83;5.97;;;;;;;;;;5084963;28;20514;-96
2021/05/16 13:20:44;;;;;;;5.80;5.30;;;;;;;;;;5084191;28;20541;-96
2021/05/16 13:23:19;;;;;;;6.20;5.70;;;;;;;;;;5088588;28;20458;-96
2021/05/16 13:25:45;;;;;;;5.23;4.77;;;;;;;;;;5087581;28;20481;-96
2021/05/16 13:28:15;;;;;;;5.23;4.83;;;;;;;;;;5091060;28;20447;-96
2021/05/16 13:30:54;;;;;;;5.03;4.53;;;;;;;;;;5083520;28;20921;-96
2021/05/16 13:33:25;;;;;;;5.47;4.97;;;;;;;;;;5090483;28;20450;-96
2021/05/16 13:35:51;;;;;;;8.10;5.23;;;;;;;;;;5081980;28;20618;-96
2021/05/16 13:38:18;;;;;;;6.30;5.17;;;;;;;;;;5064892;28;20487;-96
2021/05/16 13:40:44;;;;;;;6.10;4.67;;;;;;;;;;5082156;28;20449;-96
2021/05/16 13:43:10;;;;;;;4.73;3.97;;;;;;;;;;5096573;28;20457;-96
2021/05/16 13:45:36;;;;;;;4.60;3.83;;;;;;;;;;5082365;28;20475;-96
2021/05/16 13:48:02;;;;;;;4.53;3.83;;;;;;;;;;5089136;28;20449;-96
2021/05/16 13:50:28;;;;;;;8.10;3.77;;;;;;;;;;5083429;28;21231;-95
2021/05/16 13:52:54;;;;;;;4.17;3.87;;;;;;;;;;5075918;28;21699;-96
2021/05/16 13:55:21;;;;;;;12.10;4.93;;;;;;;;;;5085929;28;20464;-96
2021/05/16 13:57:47;;;;;;;3.83;3.60;;;;;;;;;;5086736;28;20515;-96
2021/05/16 14:00:14;;;;;;;4.07;3.37;;;;;;;;;;5081100;28;20510;-95
2021/05/16 14:02:44;;;;;;;6.00;3.60;;;;;;;;;;5085108;28;20456;-96
2021/05/16 14:05:15;;;;;;;3.90;3.50;;;;;;;;;;5241011;22;20475;-96
2021/05/16 14:07:48;;;;;;;4.50;3.93;;;;;;;;;;5094706;22;20476;-96
2021/05/16 14:10:16;;;;;;;3.87;3.57;;;;;;;;;;5094892;23;20522;-96
2021/05/16 14:13:04;;;;;;;4.50;4.10;;;;;;;;;;5116326;28;20531;-96
2021/05/16 14:15:33;;;;;;;3.57;3.27;;;;;;;;;;5029289;22;20509;-96
2021/05/16 14:23:09;;;;;;;4.37;3.90;;;;;;;;;;5373676;22;20498;-96
2021/05/16 14:25:36;;;;;;;6.00;4.23;;;;;;;;;;4956972;28;20426;-96
2021/05/16 14:28:04;;;;;;;3.73;3.53;;;;;;;;;;4968577;28;20454;-96
2021/05/16 14:30:30;;;;;;;5.23;4.00;;;;;;;;;;4963432;28;20829;-93
2021/05/16 14:32:57;;;;;;;5.57;4.40;;;;;;;;;;5072177;23;20485;-92
2021/05/16 14:35:23;;;;;;;4.90;4.50;;;;;;;;;;5070374;28;20460;-96
2021/05/16 14:37:49;;;;;;;5.87;4.57;;;;;;;;;;5072958;28;20536;-96
2021/05/16 14:40:15;;;;;;;8.33;4.70;;;;;;;;;;5071252;28;20466;-96
2021/05/16 14:42:41;;;;;;;4.63;4.33;;;;;;;;;;5069778;28;20445;-95
2021/05/16 14:45:08;;;;;;;4.37;3.83;;;;;;;;;;5070668;28;20452;-94
2021/05/16 14:47:34;;;;;;;5.53;4.43;;;;;;;;;;5069519;28;20497;-96
2021/05/16 14:50:01;;;;;;;4.57;4.27;;;;;;;;;;5070263;28;20453;-96
2021/05/16 14:52:29;;;;;;;4.50;4.10;;;;;;;;;;5069482;28;20457;-96
2021/05/16 14:55:04;;;;;;;5.20;4.67;;;;;;;;;;5085962;28;20454;-96
2021/05/16 15:00:25;;;;;;;6.20;4.70;;;;;;;;;;5075405;28;20599;-96
2021/05/16 15:03:04;;;;;;;4.97;4.57;;;;;;;;;;5078649;28;20863;-96
2021/05/16 15:05:43;;;;;;;5.10;4.70;;;;;;;;;;5082960;28;20453;-96
2021/05/16 15:08:15;;;;;;;11.30;5.23;;;;;;;;;;5083477;28;20476;-96
2021/05/16 15:10:49;;;;;;;7.80;4.43;;;;;;;;;;5084181;28;20422;-96
2021/05/16 15:13:21;;;;;;;4.97;4.50;;;;;;;;;;5205765;22;20484;-96
2021/05/16 15:18:35;;;;;;;5.70;5.23;;;;;;;;;;5274337;22;20481;-96
2021/05/16 15:24:14;;;;;;;6.07;5.03;;;;;;;;;;5726477;22;20440;-96
2021/05/16 15:32:30;;;;;;;4.47;4.13;;;;;;;;;;5494663;22;20499;-96
2021/05/16 15:34:57;;;;;;;6.77;4.50;;;;;;;;;;5333151;22;20444;-96
2021/05/16 15:37:23;;;;;;;5.33;4.83;;;;;;;;;;5060878;28;20484;-92
2021/05/16 15:39:49;;;;;;;5.30;4.80;;;;;;;;;;5061558;28;20450;-94
2021/05/16 15:42:15;;;;;;;5.00;4.50;;;;;;;;;;5065122;28;20460;-96
2021/05/16 15:44:41;;;;;;;5.57;4.80;;;;;;;;;;5072906;28;20449;-96
2021/05/16 15:47:07;;;;;;;5.87;5.37;;;;;;;;;;5077706;28;20519;-94
2021/05/16 15:49:34;;;;;;;5.63;5.13;;;;;;;;;;5380216;22;20455;-96
2021/05/16 15:52:00;;;;;;;6.57;5.90;;;;;;;;;;5067198;28;20477;-96
2021/05/16 15:54:31;;;;;;;7.70;5.10;;;;;;;;;;5124046;22;20497;-96
2021/05/16 16:10:39;;;;;;;12.57;6.67;;;;;;;;;;5164401;22;20507;-96
2021/05/16 16:13:06;;;;;;;11.30;6.00;;;;;;;;;;5334851;22;20476;-97
2021/05/16 16:15:32;;;;;;;14.27;6.40;;;;;;;;;;5118977;22;20545;-96
2021/05/16 16:18:00;;;;;;;7.87;5.60;;;;;;;;;;5025235;28;20470;-94
2021/05/16 16:20:26;;;;;;;7.10;6.37;;;;;;;;;;5024485;28;20889;-95
2021/05/16 16:22:59;;;;;;;7.40;6.70;;;;;;;;;;5031095;28;21222;-96
2021/05/16 16:25:25;;;;;;;8.33;6.20;;;;;;;;;;5020464;28;20459;-96
2021/05/16 16:28:07;;;;;;;7.20;6.07;;;;;;;;;;5036747;28;20470;-96
2021/05/16 16:30:37;;;;;;;8.03;5.83;;;;;;;;;;5025401;28;20479;-94
2021/05/16 16:33:03;;;;;;;6.30;5.50;;;;;;;;;;5024978;28;20513;-96
2021/05/16 16:35:32;;;;;;;5.73;5.23;;;;;;;;;;5039196;23;20449;-96
2021/05/16 16:44:00;;;;;;;4.37;4.07;;;;;;;;;;5079991;28;21182;-96
2021/05/16 16:46:42;;;;;;;6.37;4.73;;;;;;;;;;5082532;28;20593;-96
2021/05/16 16:49:11;;;;;;;6.63;4.20;;;;;;;;;;5071230;28;20455;-96
2021/05/16 16:51:45;;;;;;;2.67;2.47;;;;;;;;;;5085530;28;20623;-96
2021/05/16 16:54:19;;;;;;;5.50;2.80;;;;;;;;;;5076182;28;20446;-96
2021/05/16 16:56:49;;;;;;;12.13;2.90;;;;;;;;;;5083086;28;20528;-96
2021/05/16 16:59:27;;;;;;;3.27;2.50;;;;;;;;;;5118781;22;20434;-96
2021/05/16 17:02:05;;;;;;;2.87;2.63;;;;;;;;;;5074593;23;20489;-96
2021/05/16 17:04:43;;;;;;;2.57;2.37;;;;;;;;;;5073005;28;20483;-96
2021/05/16 17:07:12;;;;;;;2.60;2.40;;;;;;;;;;5065272;28;20485;-96
2021/05/16 17:09:39;;;;;;;6.80;2.80;;;;;;;;;;5058634;28;20521;-96
2021/05/16 17:12:05;;;;;;;6.30;2.37;;;;;;;;;;5058003;28;20462;-94
2021/05/16 17:14:31;;;;;;;5.17;2.17;;;;;;;;;;5054694;28;20466;-96
2021/05/16 17:16:58;;;;;;;14.03;2.30;;;;;;;;;;5059775;28;20450;-96
2021/05/16 17:19:24;;;;;;;2.20;2.00;;;;;;;;;;5070998;28;20449;-96
2021/05/16 17:21:50;;;;;;;5.03;2.40;;;;;;;;;;5055193;28;20452;-96
2021/05/16 17:24:19;;;;;;;3.40;2.10;;;;;;;;;;5061751;28;20545;-96
2021/05/16 17:26:46;;;;;;;3.93;2.23;;;;;;;;;;5052314;28;20505;-96